createdAt,value
2018-03-14T00:00:47.928Z,1.70
2018-03-14T00:03:16.551Z,1.98
2018-03-14T00:05:50.003Z,2.30
2018-03-14T00:08:18.545Z,2.12
2018-03-14T00:10:47.105Z,2.47
2018-03-14T00:13:15.672Z,1.85
2018-03-14T00:15:44.225Z,2.50
2018-03-14T00:18:14.003Z,1.83
2018-03-14T00:20:42.595Z,2.22
2018-03-14T00:23:13.764Z,2.72
2018-03-14T00:25:42.311Z,2.30
2018-03-14T00:28:10.957Z,2.47
2018-03-14T00:30:39.513Z,3.03
2018-03-14T00:33:10.563Z,2.28
2018-03-14T00:35:39.230Z,2.20
2018-03-14T00:38:07.800Z,2.42
2018-03-14T00:40:38.344Z,3.28
2018-03-14T00:43:06.888Z,3.05
2018-03-14T00:45:35.571Z,2.55
2018-03-14T00:48:10.549Z,3.45
2018-03-14T00:50:39.058Z,2.42
2018-03-14T00:53:07.933Z,2.22
2018-03-14T00:58:08.630Z,2.95
2018-03-14T01:00:37.230Z,2.47
2018-03-14T01:03:05.820Z,2.08
2018-03-14T01:05:34.814Z,3.00
2018-03-14T01:08:03.489Z,2.40
2018-03-14T01:10:32.019Z,2.97
2018-03-14T01:13:00.565Z,2.75
2018-03-14T01:15:29.454Z,2.92
2018-03-14T01:17:58.217Z,3.28
2018-03-14T01:20:26.733Z,2.55
2018-03-14T01:22:55.232Z,2.70
2018-03-14T01:25:25.280Z,2.90
2018-03-14T01:27:53.874Z,2.70
2018-03-14T01:30:22.479Z,2.80
2018-03-14T01:32:50.997Z,2.33
2018-03-14T01:35:19.590Z,2.65
2018-03-14T01:37:48.131Z,2.35
2018-03-14T01:40:21.540Z,2.72
2018-03-14T01:42:50.107Z,3.35
2018-03-14T01:45:18.680Z,3.28
2018-03-14T01:47:47.192Z,3.40
2018-03-14T01:50:16.175Z,3.17
2018-03-14T01:52:44.751Z,2.30
2018-03-14T01:55:13.407Z,2.55
2018-03-14T01:57:41.932Z,2.35
2018-03-14T02:00:11.803Z,2.62
2018-03-14T02:02:40.386Z,2.90
2018-03-14T02:05:09.789Z,3.05
2018-03-14T02:07:38.373Z,3.95
2018-03-14T02:10:10.985Z,3.03
2018-03-14T02:12:39.601Z,3.60
2018-03-14T02:15:09.040Z,3.05
2018-03-14T02:17:37.892Z,2.87
2018-03-14T02:20:07.581Z,3.00
2018-03-14T02:22:36.400Z,3.28
2018-03-14T02:25:05.037Z,4.07
2018-03-14T02:27:33.628Z,3.40
2018-03-14T02:30:08.576Z,3.67
2018-03-14T02:32:37.116Z,3.42
2018-03-14T02:35:06.503Z,3.53
2018-03-14T02:37:35.091Z,3.33
2018-03-14T02:40:04.912Z,4.18
2018-03-14T02:42:33.447Z,4.07
2018-03-14T02:45:01.979Z,3.92
2018-03-14T02:47:30.841Z,4.35
2018-03-14T02:49:59.349Z,4.78
2018-03-14T02:52:27.864Z,4.50
2018-03-14T02:54:56.341Z,4.85
2018-03-14T02:57:25.852Z,3.80
2018-03-14T03:00:08.397Z,3.67
2018-03-14T03:02:36.898Z,4.57
2018-03-14T03:05:05.577Z,4.50
2018-03-14T03:07:34.215Z,3.67
2018-03-14T03:10:03.071Z,5.18
2018-03-14T03:12:31.617Z,5.57
2018-03-14T03:15:00.206Z,4.35
2018-03-14T03:17:28.731Z,4.30
2018-03-14T03:19:57.625Z,4.95
2018-03-14T03:22:26.151Z,5.20
2018-03-14T03:24:54.644Z,6.22
2018-03-14T03:27:23.167Z,5.43
2018-03-14T03:29:52.164Z,5.87
2018-03-14T03:32:20.829Z,5.72
2018-03-14T03:34:49.500Z,5.50
2018-03-14T03:37:18.359Z,5.50
2018-03-14T03:40:08.449Z,5.65
2018-03-14T03:42:37.032Z,5.68
2018-03-14T03:45:07.055Z,7.03
2018-03-14T03:47:36.960Z,5.55
2018-03-14T03:50:06.581Z,5.80
2018-03-14T03:52:35.296Z,6.50
2018-03-14T03:55:03.927Z,5.47
2018-03-14T03:57:32.485Z,7.43
2018-03-14T04:00:02.616Z,6.40
2018-03-14T04:02:31.117Z,6.43
2018-03-14T04:04:59.654Z,7.32
2018-03-14T04:07:28.215Z,6.60
2018-03-14T04:09:56.766Z,7.62
2018-03-14T04:12:25.435Z,7.55
2018-03-14T04:14:55.367Z,7.18
2018-03-14T04:17:23.963Z,6.62
2018-03-14T04:19:52.639Z,6.50
2018-03-14T04:22:21.168Z,6.80
2018-03-14T04:27:26.211Z,5.43
2018-03-14T04:29:54.772Z,6.55
2018-03-14T04:32:30.848Z,7.57
2018-03-14T04:34:59.427Z,7.22
2018-03-14T04:37:27.962Z,6.40
2018-03-14T04:39:56.493Z,6.62
2018-03-14T04:42:25.492Z,7.40
2018-03-14T04:44:54.172Z,5.97
2018-03-14T04:47:22.758Z,7.75
2018-03-14T04:49:51.452Z,8.45
2018-03-14T04:52:22.523Z,8.05
2018-03-14T04:58:13.270Z,7.40
2018-03-14T05:00:45.922Z,7.75
2018-03-14T05:03:14.787Z,6.70
2018-03-14T05:05:43.448Z,7.35
2018-03-14T05:08:12.041Z,8.38
2018-03-14T05:10:41.869Z,7.05
2018-03-14T05:13:10.372Z,7.68
2018-03-14T05:15:39.008Z,7.07
2018-03-14T05:18:07.721Z,7.18
2018-03-14T05:20:36.424Z,6.03
2018-03-14T05:23:05.023Z,5.62
2018-03-14T05:25:35.941Z,5.70
2018-03-14T05:29:30.464Z,7.10
2018-03-14T05:31:59.310Z,7.53
2018-03-14T05:34:31.871Z,5.40
2018-03-14T05:37:00.583Z,5.90
2018-03-14T05:39:29.279Z,5.50
2018-03-14T05:41:57.851Z,5.85
2018-03-14T05:44:26.697Z,6.07
2018-03-14T05:46:55.312Z,4.90
2018-03-14T05:49:24.349Z,4.95
2018-03-14T05:51:52.936Z,4.70
2018-03-14T05:54:22.875Z,4.37
2018-03-14T05:56:52.114Z,4.22
2018-03-14T05:59:20.798Z,5.62
2018-03-14T06:01:49.590Z,4.65
2018-03-14T06:04:22.796Z,5.78
2018-03-14T06:06:51.399Z,5.10
2018-03-14T06:09:20.004Z,6.32
2018-03-14T06:11:48.598Z,6.07
2018-03-14T06:14:19.078Z,5.97
2018-03-14T06:16:48.003Z,6.85
2018-03-14T06:19:16.865Z,4.90
2018-03-14T06:21:46.940Z,7.25
2018-03-14T06:24:16.806Z,5.43
2018-03-14T06:26:45.419Z,6.07
2018-03-14T06:29:13.983Z,5.37
2018-03-14T06:31:42.514Z,5.68
2018-03-14T06:34:11.054Z,5.30
2018-03-14T06:36:39.601Z,6.07
2018-03-14T06:39:08.178Z,7.22
2018-03-14T06:41:38.259Z,5.20
2018-03-14T06:44:07.789Z,6.45
2018-03-14T06:46:36.928Z,7.28
2018-03-14T06:49:07.096Z,6.15
2018-03-14T06:51:41.317Z,8.07
2018-03-14T06:54:10.997Z,6.18
2018-03-14T06:56:40.907Z,5.90
2018-03-14T07:01:24.950Z,7.30
2018-03-14T07:04:04.674Z,5.20
2018-03-14T07:06:33.221Z,6.55
2018-03-14T07:09:02.032Z,5.35
2018-03-14T07:11:30.480Z,5.60
2018-03-14T07:13:58.983Z,5.65
2018-03-14T07:16:27.904Z,6.85
2018-03-14T07:18:56.569Z,6.00
2018-03-14T07:21:25.180Z,6.03
2018-03-14T07:23:54.003Z,5.32
2018-03-14T07:26:23.023Z,6.43
2018-03-14T07:28:59.297Z,4.95
2018-03-14T07:31:28.775Z,5.50
2018-03-14T07:33:59.676Z,5.20
2018-03-14T07:36:29.377Z,6.43
2018-03-14T07:38:58.500Z,4.93
2018-03-14T07:41:27.676Z,6.05
2018-03-14T07:43:56.526Z,5.75
2018-03-14T07:46:26.502Z,6.05
2018-03-14T07:49:00.312Z,6.25
2018-03-14T07:51:30.163Z,5.45
2018-03-14T07:53:58.721Z,6.10
2018-03-14T07:56:27.339Z,5.85
2018-03-14T07:58:56.020Z,5.22
2018-03-14T08:01:24.573Z,5.25
2018-03-14T08:03:53.240Z,5.30
2018-03-14T08:06:22.075Z,4.82
2018-03-14T08:08:50.619Z,5.80
2018-03-14T08:11:19.164Z,5.32
2018-03-14T08:13:48.358Z,4.45
2018-03-14T08:16:17.137Z,5.12
2018-03-14T08:18:46.320Z,5.18
2018-03-14T08:21:14.900Z,3.85
2018-03-14T08:23:43.498Z,4.85
2018-03-14T08:26:12.588Z,5.00
2018-03-14T08:28:41.390Z,4.70
2018-03-14T08:31:10.048Z,3.87
2018-03-14T08:33:38.631Z,4.70
2018-03-14T08:38:42.395Z,3.90
2018-03-14T08:41:10.990Z,4.80
2018-03-14T08:43:39.596Z,3.75
2018-03-14T08:46:08.122Z,5.10
2018-03-14T08:48:36.759Z,4.18
2018-03-14T08:51:06.564Z,4.05
2018-03-14T08:53:37.291Z,4.22
2018-03-14T08:56:05.986Z,3.87
2018-03-14T08:58:34.731Z,3.90
2018-03-14T09:01:03.338Z,3.15
2018-03-14T09:03:31.969Z,3.17
2018-03-14T09:06:21.101Z,3.33
2018-03-14T09:09:07.088Z,3.45
2018-03-14T09:25:12.437Z,3.67
2018-03-14T09:27:41.141Z,2.60
2018-03-14T09:30:10.407Z,2.80
2018-03-14T09:32:39.147Z,3.28
2018-03-14T09:35:08.336Z,2.60
2018-03-14T09:37:37.482Z,2.47
2018-03-14T09:40:06.350Z,2.58
2018-03-14T09:42:34.938Z,2.15
2018-03-14T09:45:03.613Z,3.30
2018-03-14T09:47:32.118Z,3.12
2018-03-14T09:50:04.972Z,2.67
2018-03-14T09:52:33.485Z,2.92
2018-03-14T09:55:02.103Z,2.15
2018-03-14T09:57:30.660Z,1.83
2018-03-14T09:59:59.325Z,1.70
2018-03-14T10:02:27.950Z,2.37
2018-03-14T10:04:56.502Z,2.58
2018-03-14T10:07:25.364Z,1.90
2018-03-14T10:09:53.917Z,2.10
2018-03-14T10:12:22.591Z,1.87
2018-03-14T10:14:51.144Z,2.00
2018-03-14T10:17:20.070Z,1.90
2018-03-14T10:19:48.625Z,2.10
2018-03-14T10:22:17.313Z,2.22
2018-03-14T10:24:47.177Z,2.12
2018-03-14T10:27:15.655Z,2.40
2018-03-14T10:29:44.296Z,2.00
2018-03-14T10:32:12.939Z,2.70
2018-03-14T10:34:41.523Z,2.75
2018-03-14T10:37:10.208Z,2.05
2018-03-14T10:39:38.758Z,2.25
2018-03-14T10:42:07.507Z,2.00
2018-03-14T10:44:36.037Z,2.53
2018-03-14T10:47:04.645Z,2.67
2018-03-14T10:49:52.231Z,2.37
2018-03-14T10:52:20.850Z,2.35
2018-03-14T10:54:49.615Z,2.28
2018-03-14T10:57:25.117Z,2.20
2018-03-14T10:59:53.644Z,2.80
2018-03-14T11:02:23.314Z,2.55
2018-03-14T11:04:52.438Z,2.50
2018-03-14T11:07:21.356Z,2.50
2018-03-14T11:09:50.070Z,2.60
2018-03-14T11:12:18.700Z,2.50
2018-03-14T11:14:47.312Z,2.78
2018-03-14T11:17:15.859Z,2.53
2018-03-14T11:19:44.449Z,2.80
2018-03-14T11:22:14.026Z,2.30
2018-03-14T11:24:42.898Z,2.33
2018-03-14T11:27:11.569Z,2.42
2018-03-14T11:29:40.254Z,2.72
2018-03-14T11:32:10.031Z,3.45
2018-03-14T11:34:44.452Z,4.25
2018-03-14T11:37:13.235Z,3.33
2018-03-14T11:39:41.916Z,2.65
2018-03-14T11:42:10.549Z,3.20
2018-03-14T11:44:39.177Z,3.10
2018-03-14T11:47:08.076Z,2.15
2018-03-14T11:49:37.011Z,2.42
2018-03-14T11:52:05.710Z,3.03
2018-03-14T11:54:34.383Z,2.67
2018-03-14T11:57:03.071Z,2.87
2018-03-14T11:59:32.606Z,2.90
2018-03-14T12:02:01.267Z,2.45
2018-03-14T12:04:29.998Z,2.62
2018-03-14T12:06:58.968Z,2.65
2018-03-14T12:09:27.835Z,3.20
2018-03-14T12:11:56.602Z,3.72
2018-03-14T12:14:25.472Z,4.57
2018-03-14T12:16:54.459Z,3.53
2018-03-14T12:19:23.353Z,3.58
2018-03-14T12:21:52.244Z,3.55
2018-03-14T12:24:20.868Z,3.22
2018-03-14T12:26:49.587Z,3.60
2018-03-14T12:29:18.298Z,2.80
2018-03-14T12:31:46.857Z,3.53
2018-03-14T12:34:16.722Z,3.40
2018-03-14T12:36:45.178Z,2.62
2018-03-14T12:39:13.852Z,3.50
2018-03-14T12:41:42.625Z,2.92
2018-03-14T12:44:11.762Z,2.62
2018-03-14T12:46:40.222Z,3.33
2018-03-14T12:49:08.708Z,3.70
2018-03-14T12:51:45.204Z,3.75
2018-03-14T12:54:13.844Z,2.28
2018-03-14T12:56:46.616Z,4.37
2018-03-14T12:59:15.070Z,3.33
2018-03-14T13:01:43.991Z,4.35
2018-03-14T13:04:12.613Z,3.92
2018-03-14T13:06:41.312Z,4.28
2018-03-14T13:09:10.072Z,4.35
2018-03-14T13:11:38.717Z,5.12
2018-03-14T13:14:07.266Z,4.68
2018-03-14T13:16:38.419Z,4.00
2018-03-14T13:19:06.949Z,4.90
2018-03-14T13:21:35.578Z,4.32
2018-03-14T13:24:04.133Z,3.87
2018-03-14T13:26:32.663Z,3.78
2018-03-14T13:29:01.348Z,4.30
2018-03-14T13:31:29.959Z,3.87
2018-03-14T13:34:01.129Z,3.53
2018-03-14T13:36:29.685Z,3.95
2018-03-14T13:38:58.200Z,2.87
2018-03-14T13:41:27.172Z,4.22
2018-03-14T13:43:55.656Z,3.50
2018-03-14T13:46:24.195Z,3.97
2018-03-14T13:48:53.822Z,4.07
2018-03-14T13:51:22.331Z,3.75
2018-03-14T13:53:50.799Z,3.00
2018-03-14T13:56:19.403Z,3.45
2018-03-14T13:58:47.967Z,3.70
2018-03-14T14:01:16.876Z,3.50
2018-03-14T14:06:19.314Z,4.20
2018-03-14T14:08:49.338Z,4.32
2018-03-14T14:11:17.922Z,3.45
2018-03-14T14:13:46.506Z,4.03
2018-03-14T14:16:15.117Z,3.90
2018-03-14T14:18:44.118Z,4.32
2018-03-14T14:21:12.574Z,4.15
2018-03-14T14:23:41.111Z,3.42
2018-03-14T14:26:09.646Z,3.25
2018-03-14T14:28:38.885Z,3.45
2018-03-14T14:31:07.507Z,3.47
2018-03-14T14:33:36.323Z,3.30
2018-03-14T14:36:05.822Z,2.97
2018-03-14T14:38:35.143Z,3.75
2018-03-14T14:41:03.900Z,3.45
2018-03-14T14:43:32.387Z,3.92
2018-03-14T14:46:00.796Z,3.53
2018-03-14T14:48:29.556Z,4.18
2018-03-14T14:50:58.046Z,4.12
2018-03-14T14:53:26.602Z,3.95
2018-03-14T14:55:55.184Z,3.87
2018-03-14T14:58:27.691Z,3.78
2018-03-14T15:00:56.325Z,4.55
2018-03-14T15:03:24.845Z,4.75
2018-03-14T15:05:53.366Z,5.07
2018-03-14T15:08:21.975Z,3.78
2018-03-14T15:10:50.914Z,3.67
2018-03-14T15:13:21.768Z,4.40
2018-03-14T15:15:50.318Z,3.78
2018-03-14T15:18:18.905Z,3.90
2018-03-14T15:20:47.427Z,4.53
2018-03-14T15:23:15.947Z,4.22
2018-03-14T15:25:44.506Z,4.10
2018-03-14T15:28:13.053Z,3.67
2018-03-14T15:30:41.600Z,3.55
2018-03-14T15:33:10.670Z,3.92
2018-03-14T15:35:39.381Z,3.75
2018-03-14T15:38:09.230Z,3.20
2018-03-14T15:40:37.779Z,3.67
2018-03-14T15:43:06.460Z,2.92
2018-03-14T15:45:34.976Z,3.47
2018-03-14T15:48:04.613Z,3.95
2018-03-14T15:50:33.175Z,4.32
2018-03-14T15:53:01.859Z,4.15
2018-03-14T15:55:31.056Z,3.83
2018-03-14T15:58:02.139Z,3.45
2018-03-14T16:00:30.578Z,3.60
2018-03-14T16:02:59.231Z,4.12
2018-03-14T16:05:27.757Z,4.10
2018-03-14T16:07:56.295Z,4.12
2018-03-14T16:10:24.828Z,4.10
2018-03-14T16:12:53.817Z,3.70
2018-03-14T16:15:22.274Z,4.20
2018-03-14T16:17:51.336Z,4.25
2018-03-14T16:20:19.950Z,4.50
2018-03-14T16:25:10.514Z,3.22
2018-03-14T16:27:39.074Z,3.12
2018-03-14T16:30:08.539Z,3.90
2018-03-14T16:32:37.308Z,3.67
2018-03-14T16:35:05.821Z,4.03
2018-03-14T16:37:34.753Z,4.05
2018-03-14T16:40:04.241Z,3.83
2018-03-14T16:42:40.209Z,5.07
2018-03-14T16:45:10.236Z,5.43
2018-03-14T16:47:38.941Z,4.35
2018-03-14T16:50:12.080Z,4.40
2018-03-14T16:52:40.780Z,4.25
2018-03-14T16:55:10.080Z,4.47
2018-03-14T16:57:50.284Z,5.30
2018-03-14T17:00:18.867Z,4.18
2018-03-14T17:02:47.441Z,4.35
2018-03-14T17:05:15.963Z,4.05
2018-03-14T17:07:45.228Z,4.72
2018-03-14T17:10:15.433Z,4.30
2018-03-14T17:12:44.008Z,3.97
2018-03-14T17:15:12.598Z,3.65
2018-03-14T17:17:42.526Z,4.90
2018-03-14T17:20:11.174Z,4.62
2018-03-14T17:22:39.629Z,3.45
2018-03-14T17:25:09.874Z,4.00
2018-03-14T17:27:47.527Z,4.55
2018-03-14T17:30:16.153Z,4.00
2018-03-14T17:32:44.618Z,3.70
2018-03-14T17:35:13.351Z,3.55
2018-03-14T17:37:41.832Z,3.78
2018-03-14T17:40:10.428Z,3.28
2018-03-14T17:42:39.077Z,3.70
2018-03-14T17:45:08.728Z,3.20
2018-03-14T17:47:38.118Z,3.75
2018-03-14T17:50:07.325Z,3.30
2018-03-14T17:52:35.844Z,4.07
2018-03-14T17:55:04.353Z,3.28
2018-03-14T17:57:33.095Z,3.80
2018-03-14T18:00:03.271Z,3.37
2018-03-14T18:02:35.212Z,3.47
2018-03-14T18:05:03.808Z,3.50
2018-03-14T18:07:36.871Z,3.60
2018-03-14T18:10:05.534Z,3.37
2018-03-14T18:14:58.133Z,3.10
2018-03-14T18:17:26.755Z,4.53
2018-03-14T18:19:55.363Z,3.08
2018-03-14T18:22:25.240Z,2.60
2018-03-14T18:24:54.579Z,4.47
2018-03-14T18:27:23.854Z,4.45
2018-03-14T18:29:52.824Z,4.45
2018-03-14T18:32:21.626Z,3.25
2018-03-14T18:34:50.235Z,3.70
2018-03-14T18:37:19.331Z,4.15
2018-03-14T18:39:48.204Z,4.18
2018-03-14T18:42:17.251Z,4.20
2018-03-14T18:44:46.819Z,3.80
2018-03-14T18:47:23.071Z,4.60
2018-03-14T18:49:51.920Z,3.65
2018-03-14T18:52:20.950Z,4.05
2018-03-14T18:54:49.908Z,3.45
2018-03-14T18:59:53.826Z,4.97
2018-03-14T19:02:22.903Z,4.10
2018-03-14T19:04:52.742Z,4.47
2018-03-14T19:07:21.594Z,4.18
2018-03-14T19:09:52.971Z,3.35
2018-03-14T19:12:22.360Z,4.40
2018-03-14T19:14:55.557Z,4.68
2018-03-14T19:17:28.340Z,4.65
2018-03-14T19:19:58.220Z,4.55
2018-03-14T19:22:27.119Z,5.25
2018-03-14T19:24:56.287Z,4.37
2018-03-14T19:27:28.368Z,4.65
2018-03-14T19:29:57.349Z,5.32
2018-03-14T19:32:28.421Z,4.47
2018-03-14T19:34:57.100Z,4.30
2018-03-14T19:37:25.749Z,4.68
2018-03-14T19:39:56.115Z,4.28
2018-03-14T19:42:24.806Z,4.85
2018-03-14T19:44:54.012Z,4.78
2018-03-14T19:47:22.601Z,5.00
2018-03-14T19:49:51.207Z,4.10
2018-03-14T19:52:19.839Z,4.53
2018-03-14T19:54:48.416Z,5.65
2018-03-14T19:57:17.122Z,4.07
2018-03-14T19:59:45.947Z,4.07
2018-03-14T20:02:14.976Z,4.32
2018-03-14T20:04:43.534Z,4.50
2018-03-14T20:07:13.632Z,4.93
2018-03-14T20:09:42.177Z,4.43
2018-03-14T20:12:10.897Z,6.03
2018-03-14T20:14:39.745Z,4.87
2018-03-14T20:17:08.280Z,4.68
2018-03-14T20:19:36.879Z,4.55
2018-03-14T20:22:05.518Z,5.93
2018-03-14T20:24:35.619Z,4.87
2018-03-14T20:27:04.215Z,5.75
2018-03-14T20:29:33.805Z,6.00
2018-03-14T20:32:02.598Z,6.62
2018-03-14T20:34:31.414Z,4.78
2018-03-14T20:37:00.029Z,4.93
2018-03-14T20:39:28.921Z,4.95
2018-03-14T20:41:57.623Z,5.22
2018-03-14T20:44:26.381Z,6.43
2018-03-14T20:46:55.586Z,4.75
2018-03-14T20:49:24.093Z,4.95
2018-03-14T20:51:52.642Z,5.95
2018-03-14T20:54:21.224Z,5.43
2018-03-14T20:56:50.012Z,6.28
2018-03-14T20:59:18.911Z,5.03
2018-03-14T21:01:47.596Z,5.43
2018-03-14T21:04:16.229Z,5.87
2018-03-14T21:06:45.154Z,5.60
2018-03-14T21:09:13.642Z,5.62
2018-03-14T21:11:42.120Z,5.68
2018-03-14T21:14:10.631Z,5.93
2018-03-14T21:16:40.132Z,6.30
2018-03-14T21:19:08.695Z,5.57
2018-03-14T21:21:38.351Z,5.30
2018-03-14T21:24:06.812Z,6.30
2018-03-14T21:26:35.318Z,6.87
2018-03-14T21:29:03.902Z,6.03
2018-03-14T21:31:32.433Z,6.50
2018-03-14T21:34:00.915Z,5.57
2018-03-14T21:36:34.554Z,5.93
2018-03-14T21:39:03.227Z,6.15
2018-03-14T21:41:31.895Z,6.87
2018-03-14T21:44:01.471Z,5.65
2018-03-14T21:46:29.970Z,6.43
2018-03-14T21:48:58.695Z,6.20
2018-03-14T21:51:27.178Z,6.22
2018-03-14T21:53:56.202Z,6.87
2018-03-14T21:56:43.369Z,6.10
2018-03-14T21:59:12.168Z,7.05
2018-03-14T22:01:41.369Z,6.00
2018-03-14T22:04:09.992Z,5.25
2018-03-14T22:06:38.720Z,6.30
2018-03-14T22:09:07.336Z,5.57
2018-03-14T22:11:37.343Z,6.37
2018-03-14T22:14:06.129Z,7.40
2018-03-14T22:16:34.617Z,6.68
2018-03-14T22:19:03.195Z,7.28
2018-03-14T22:21:31.891Z,8.43
2018-03-14T22:24:00.554Z,7.30
2018-03-14T22:29:03.407Z,7.53
2018-03-14T22:31:32.784Z,7.70
2018-03-14T22:34:04.125Z,6.85
2018-03-14T22:36:35.112Z,7.15
2018-03-14T22:39:04.170Z,8.05
2018-03-14T22:41:32.694Z,7.10
2018-03-14T22:44:01.324Z,8.32
2018-03-14T22:46:31.221Z,7.65
2018-03-14T22:48:59.926Z,7.25
2018-03-14T22:51:28.591Z,7.55
2018-03-14T22:53:57.380Z,8.07
2018-03-14T22:56:28.366Z,7.87
2018-03-14T22:58:57.304Z,8.83
2018-03-14T23:01:26.563Z,7.63
2018-03-14T23:03:56.509Z,7.37
2018-03-14T23:06:26.597Z,8.50
2018-03-14T23:08:55.453Z,9.07
2018-03-14T23:11:24.090Z,8.13
2018-03-14T23:13:53.934Z,9.75
2018-03-14T23:16:24.680Z,8.33
2018-03-14T23:18:54.278Z,8.67
2018-03-14T23:21:23.426Z,8.07
2018-03-14T23:23:52.452Z,7.77
2018-03-14T23:26:29.970Z,7.25
2018-03-14T23:28:58.639Z,9.47
2018-03-14T23:31:27.940Z,7.97
2018-03-14T23:33:57.134Z,9.63
2018-03-14T23:36:26.154Z,8.47
2018-03-14T23:38:54.890Z,8.43
2018-03-14T23:41:24.111Z,8.30
2018-03-14T23:43:53.022Z,9.33
2018-03-14T23:46:21.789Z,7.67
2018-03-14T23:48:50.692Z,7.87
2018-03-14T23:51:19.392Z,9.77
2018-03-14T23:53:48.355Z,8.60
2018-03-14T23:56:17.309Z,7.60
2018-03-14T23:58:46.002Z,8.67
